createdAt,value
2019-03-22T01:01:34.789Z,16.77
2019-03-22T01:02:34.980Z,16.69
2019-03-22T01:04:34.757Z,16.74
2019-03-22T01:05:34.745Z,16.79
2019-03-22T01:06:34.737Z,16.82
2019-03-22T01:07:34.725Z,16.90
2019-03-22T01:08:34.819Z,16.87
2019-03-22T01:09:34.705Z,16.58
2019-03-22T01:10:34.694Z,16.06
2019-03-22T01:11:34.685Z,15.66
2019-03-22T01:12:34.675Z,15.07
2019-03-22T01:13:34.662Z,14.67
2019-03-22T01:14:34.705Z,14.14
2019-03-22T01:15:34.641Z,13.66
2019-03-22T01:16:34.632Z,13.18
2019-03-22T01:17:34.618Z,12.92
2019-03-22T01:18:34.607Z,12.84
2019-03-22T01:19:34.599Z,12.75
2019-03-22T01:20:34.739Z,12.51
2019-03-22T01:21:34.581Z,12.77
2019-03-22T01:22:34.566Z,13.21
2019-03-22T01:23:34.554Z,13.54
2019-03-22T01:24:34.546Z,13.98
2019-03-22T01:25:34.534Z,14.19
2019-03-22T01:26:34.577Z,14.65
2019-03-22T01:27:40.248Z,15.05
2019-03-22T01:28:59.331Z,15.56
2019-03-22T01:29:59.314Z,15.86
2019-03-22T01:30:59.305Z,16.00
2019-03-22T01:31:59.340Z,16.11
2019-03-22T01:32:59.280Z,15.89
2019-03-22T01:33:59.273Z,15.66
2019-03-22T01:34:59.253Z,15.66
2019-03-22T01:35:59.247Z,15.37
2019-03-22T01:36:59.252Z,15.27
2019-03-22T01:37:59.377Z,15.35
2019-03-22T01:38:59.212Z,15.40
2019-03-22T01:39:59.203Z,15.64
2019-03-22T01:40:59.193Z,15.79
2019-03-22T01:41:59.182Z,16.00
2019-03-22T01:42:59.172Z,16.30
2019-03-22T01:43:59.215Z,16.57
2019-03-22T01:44:59.144Z,16.74
2019-03-22T01:45:59.137Z,16.88
2019-03-22T01:46:59.121Z,16.76
2019-03-22T01:47:59.116Z,16.37
2019-03-22T01:48:59.102Z,15.99
2019-03-22T01:49:59.142Z,16.09
2019-03-22T01:50:59.088Z,16.37
2019-03-22T01:51:59.072Z,16.59
2019-03-22T01:52:59.061Z,16.73
2019-03-22T01:53:59.049Z,16.80
2019-03-22T01:54:59.038Z,16.93
2019-03-22T01:55:59.232Z,16.55
2019-03-22T01:56:59.018Z,16.01
2019-03-22T01:57:59.004Z,15.60
2019-03-22T01:58:58.992Z,15.19
2019-03-22T01:59:58.986Z,14.80
2019-03-22T02:00:58.968Z,14.54
2019-03-22T02:01:59.066Z,14.27
2019-03-22T02:02:58.947Z,14.06
2019-03-22T02:03:58.943Z,13.91
2019-03-22T02:04:58.928Z,13.73
2019-03-22T02:05:58.916Z,13.61
2019-03-22T02:06:58.941Z,13.51
2019-03-22T02:07:58.946Z,13.33
2019-03-22T02:08:58.882Z,13.29
2019-03-22T02:09:58.874Z,13.25
2019-03-22T02:10:58.863Z,13.22
2019-03-22T02:11:58.849Z,13.29
2019-03-22T02:12:58.837Z,13.33
2019-03-22T02:13:58.979Z,13.25
2019-03-22T02:14:58.818Z,13.15
2019-03-22T02:15:58.807Z,13.12
2019-03-22T02:16:58.794Z,13.14
2019-03-22T02:17:58.786Z,13.04
2019-03-22T02:18:58.775Z,13.06
2019-03-22T02:19:58.866Z,13.06
2019-03-22T02:20:58.760Z,13.06
2019-03-22T02:21:58.738Z,13.12
2019-03-22T02:22:58.731Z,13.03
2019-03-22T02:23:58.718Z,12.97
2019-03-22T02:24:58.708Z,13.11
2019-03-22T02:25:58.796Z,13.09
2019-03-22T02:26:58.687Z,13.06
2019-03-22T02:28:04.211Z,13.06
2019-03-22T02:28:59.765Z,13.04
2019-03-22T02:29:58.656Z,13.14
2019-03-22T02:30:58.644Z,13.15
2019-03-22T02:31:58.785Z,13.07
2019-03-22T02:32:58.634Z,12.95
2019-03-22T02:33:58.618Z,12.95
2019-03-22T02:34:58.601Z,12.99
2019-03-22T02:35:58.590Z,12.89
2019-03-22T02:36:58.576Z,12.97
2019-03-22T02:37:58.612Z,12.89
2019-03-22T02:38:58.560Z,12.96
2019-03-22T02:39:58.543Z,12.95
2019-03-22T02:40:58.539Z,12.95
2019-03-22T02:41:58.525Z,13.02
2019-03-22T02:42:58.512Z,13.07
2019-03-22T02:43:58.553Z,13.24
2019-03-22T02:44:58.490Z,13.36
2019-03-22T02:45:58.482Z,13.33
2019-03-22T02:46:58.470Z,13.46
2019-03-22T02:47:58.461Z,13.61
2019-03-22T02:48:58.445Z,13.78
2019-03-22T02:49:58.636Z,13.93
2019-03-22T02:50:58.444Z,14.00
2019-03-22T02:51:58.416Z,14.03
2019-03-22T02:52:58.409Z,14.09
2019-03-22T02:53:58.398Z,14.16
2019-03-22T02:54:58.385Z,14.13
2019-03-22T02:55:58.599Z,14.13
2019-03-22T02:56:58.366Z,14.17
2019-03-22T02:57:58.350Z,14.20
2019-03-22T02:58:59.424Z,14.42
2019-03-22T02:59:58.382Z,14.44
2019-03-22T03:00:58.319Z,14.53
2019-03-22T03:01:58.357Z,14.47
2019-03-22T03:02:58.296Z,14.52
2019-03-22T03:03:58.280Z,14.57
2019-03-22T03:04:58.275Z,14.60
2019-03-22T03:05:58.261Z,14.67
2019-03-22T03:06:58.254Z,14.77
2019-03-22T03:07:58.392Z,14.82
2019-03-22T03:08:58.228Z,14.77
2019-03-22T03:09:58.219Z,14.86
2019-03-22T03:10:58.206Z,14.87
2019-03-22T03:11:58.199Z,14.90
2019-03-22T03:12:58.182Z,14.94
2019-03-22T03:13:58.220Z,15.04
2019-03-22T03:14:58.163Z,15.11
2019-03-22T03:15:58.152Z,15.11
2019-03-22T03:16:58.196Z,15.05
2019-03-22T03:17:58.132Z,15.05
2019-03-22T03:18:58.123Z,15.12
2019-03-22T03:19:58.157Z,15.26
2019-03-22T03:20:58.101Z,15.23
2019-03-22T03:21:58.087Z,15.37
2019-03-22T03:22:58.074Z,15.34
2019-03-22T03:23:58.065Z,15.49
2019-03-22T03:24:58.052Z,15.54
2019-03-22T03:25:58.193Z,15.63
2019-03-22T03:26:58.030Z,15.68
2019-03-22T03:27:58.015Z,15.63
2019-03-22T03:28:58.021Z,15.61
2019-03-22T03:29:57.999Z,15.59
2019-03-22T03:30:57.989Z,15.57
2019-03-22T03:31:58.078Z,15.56
2019-03-22T03:32:57.970Z,15.52
2019-03-22T03:33:57.965Z,15.51
2019-03-22T03:34:57.955Z,15.56
2019-03-22T03:35:57.934Z,15.45
2019-03-22T03:36:57.921Z,15.52
2019-03-22T03:37:58.014Z,15.56
2019-03-22T03:38:57.899Z,15.49
2019-03-22T03:39:57.888Z,15.45
2019-03-22T03:40:57.881Z,15.52
2019-03-22T03:41:57.868Z,15.48
2019-03-22T03:42:57.856Z,15.45
2019-03-22T03:43:57.991Z,15.35
2019-03-22T03:44:57.831Z,15.37
2019-03-22T03:45:57.823Z,15.42
2019-03-22T03:46:57.813Z,15.40
2019-03-22T03:47:57.801Z,15.41
2019-03-22T03:48:57.789Z,15.32
2019-03-22T03:49:57.878Z,15.40
2019-03-22T03:50:57.771Z,15.37
2019-03-22T03:51:57.765Z,15.45
2019-03-22T03:52:57.748Z,15.48
2019-03-22T03:53:57.738Z,15.40
2019-03-22T03:54:57.729Z,15.60
2019-03-22T03:55:57.822Z,15.52
2019-03-22T03:56:57.705Z,15.44
2019-03-22T03:57:57.692Z,15.60
2019-03-22T03:58:57.681Z,15.52
2019-03-22T03:59:57.670Z,15.52
2019-03-22T04:00:57.669Z,15.56
2019-03-22T04:01:57.801Z,15.51
2019-03-22T04:02:57.642Z,15.68
2019-03-22T04:03:57.646Z,15.70
2019-03-22T04:04:57.618Z,15.68
2019-03-22T04:05:57.608Z,15.84
2019-03-22T04:06:57.594Z,15.64
2019-03-22T04:07:57.638Z,15.76
2019-03-22T04:08:57.571Z,15.76
2019-03-22T04:09:57.569Z,15.75
2019-03-22T04:10:57.554Z,15.84
2019-03-22T04:11:57.542Z,15.76
2019-03-22T04:12:57.566Z,15.74
2019-03-22T04:13:57.621Z,15.76
2019-03-22T04:14:57.518Z,15.75
2019-03-22T04:15:57.526Z,15.76
2019-03-22T04:16:57.491Z,15.79
2019-03-22T04:17:57.473Z,15.72
2019-03-22T04:18:57.466Z,15.74
2019-03-22T04:19:57.608Z,15.68
2019-03-22T04:20:57.446Z,15.88
2019-03-22T04:21:57.440Z,15.81
2019-03-22T04:22:57.427Z,15.75
2019-03-22T04:23:57.416Z,15.88
2019-03-22T04:24:57.400Z,15.85
2019-03-22T04:25:57.443Z,15.97
2019-03-22T04:26:57.387Z,15.99
2019-03-22T04:27:57.370Z,16.12
2019-03-22T04:29:07.523Z,16.04
2019-03-22T04:30:22.160Z,16.11
2019-03-22T04:31:22.256Z,16.03
2019-03-22T04:32:22.142Z,15.97
2019-03-22T04:33:22.133Z,15.96
2019-03-22T04:34:22.133Z,15.85
2019-03-22T04:35:22.114Z,15.76
2019-03-22T04:36:22.100Z,15.74
2019-03-22T04:37:22.345Z,15.78
2019-03-22T04:38:22.079Z,15.72
2019-03-22T04:39:22.069Z,15.76
2019-03-22T04:40:22.056Z,15.82
2019-03-22T04:41:22.046Z,16.09
2019-03-22T04:42:22.038Z,16.33
2019-03-22T04:43:22.072Z,16.54
2019-03-22T04:44:22.012Z,16.57
2019-03-22T04:45:21.997Z,16.57
2019-03-22T04:46:21.990Z,16.55
2019-03-22T04:47:21.980Z,16.47
2019-03-22T04:48:21.971Z,16.39
2019-03-22T04:49:22.057Z,16.25
2019-03-22T04:50:21.945Z,16.25
2019-03-22T04:51:21.933Z,16.14
2019-03-22T04:52:21.927Z,16.12
2019-03-22T04:53:22.160Z,16.15
2019-03-22T04:54:21.905Z,16.06
2019-03-22T04:55:22.293Z,16.07
2019-03-22T04:56:21.880Z,16.36
2019-03-22T04:57:21.871Z,16.47
2019-03-22T04:58:21.862Z,16.36
2019-03-22T04:59:21.846Z,16.39
2019-03-22T05:00:21.839Z,16.48
2019-03-22T05:01:21.881Z,16.49
2019-03-22T05:02:21.813Z,16.41
2019-03-22T05:03:21.806Z,16.32
2019-03-22T05:04:21.797Z,16.29
2019-03-22T05:05:21.792Z,16.22
2019-03-22T05:06:21.770Z,16.24
2019-03-22T05:07:21.809Z,16.11
2019-03-22T05:08:21.751Z,16.12
2019-03-22T05:09:21.736Z,16.26
2019-03-22T05:10:21.730Z,16.32
2019-03-22T05:11:21.720Z,16.52
2019-03-22T05:12:21.710Z,16.37
2019-03-22T05:13:21.842Z,16.33
2019-03-22T05:14:21.686Z,16.30
2019-03-22T05:15:21.675Z,16.22
2019-03-22T05:16:21.665Z,16.11
2019-03-22T05:17:21.657Z,16.04
2019-03-22T05:18:21.645Z,16.01
2019-03-22T05:19:21.683Z,15.96
2019-03-22T05:20:21.618Z,15.94
2019-03-22T05:21:21.610Z,15.92
2019-03-22T05:22:21.597Z,15.88
2019-03-22T05:23:21.587Z,15.96
2019-03-22T05:24:21.585Z,15.88
2019-03-22T05:25:21.669Z,15.92
2019-03-22T05:26:21.552Z,16.01
2019-03-22T05:27:21.541Z,16.12
2019-03-22T05:28:21.534Z,16.25
2019-03-22T05:29:30.179Z,16.33
2019-03-22T05:30:23.010Z,16.47
2019-03-22T05:31:21.501Z,16.54
2019-03-22T05:32:21.488Z,16.62
2019-03-22T05:33:21.479Z,16.70
2019-03-22T05:34:21.470Z,16.79
2019-03-22T05:35:21.460Z,16.80
2019-03-22T05:36:21.498Z,16.93
2019-03-22T05:37:21.438Z,16.90
2019-03-22T05:38:21.426Z,16.99
2019-03-22T05:39:21.418Z,17.00
2019-03-22T05:40:21.402Z,17.10
2019-03-22T05:41:21.397Z,17.17
2019-03-22T05:42:21.486Z,17.23
2019-03-22T05:43:21.369Z,17.35
2019-03-22T05:44:21.364Z,17.36
2019-03-22T05:45:21.353Z,17.47
2019-03-22T05:46:21.340Z,17.62
2019-03-22T05:47:21.333Z,17.69
2019-03-22T05:48:21.474Z,17.77
2019-03-22T05:49:21.314Z,17.81
2019-03-22T05:50:21.301Z,17.91
2019-03-22T05:51:21.290Z,17.99
2019-03-22T05:52:21.275Z,18.03
2019-03-22T05:53:21.267Z,18.28
2019-03-22T05:54:21.358Z,18.49
2019-03-22T05:55:21.265Z,18.46
2019-03-22T05:56:21.237Z,18.68
2019-03-22T05:57:21.232Z,18.62
2019-03-22T05:58:21.218Z,18.62
2019-03-22T05:59:21.205Z,18.68
2019-03-22T06:00:21.245Z,18.76
2019-03-22T06:01:21.186Z,18.82
2019-03-22T06:02:21.172Z,18.87
2019-03-22T06:03:21.164Z,18.86
2019-03-22T06:04:21.152Z,19.01
2019-03-22T06:05:21.141Z,19.05
2019-03-22T06:06:21.279Z,19.12
2019-03-22T06:07:21.120Z,19.17
2019-03-22T06:08:21.110Z,19.09
2019-03-22T06:09:21.095Z,19.13
2019-03-22T06:10:21.086Z,19.07
2019-03-22T06:11:21.078Z,19.05
2019-03-22T06:12:21.170Z,19.10
2019-03-22T06:13:21.054Z,19.12
2019-03-22T06:14:21.044Z,19.10
2019-03-22T06:15:21.031Z,19.23
2019-03-22T06:16:21.022Z,19.34
2019-03-22T06:17:21.016Z,19.32
2019-03-22T06:18:21.046Z,19.34
2019-03-22T06:19:20.986Z,19.34
2019-03-22T06:20:20.979Z,19.28
2019-03-22T06:21:20.967Z,19.31
2019-03-22T06:22:20.957Z,19.19
2019-03-22T06:23:20.949Z,19.24
2019-03-22T06:24:22.345Z,19.27
2019-03-22T06:25:20.946Z,19.20
2019-03-22T06:26:20.916Z,19.23
2019-03-22T06:27:20.902Z,19.32
2019-03-22T06:28:20.887Z,19.41
2019-03-22T06:29:20.897Z,19.42
2019-03-22T06:30:20.970Z,19.39
2019-03-22T06:31:20.880Z,19.35
2019-03-22T06:32:20.845Z,19.57
2019-03-22T06:33:20.834Z,19.56
2019-03-22T06:34:20.822Z,19.56
2019-03-22T06:35:20.809Z,19.42
2019-03-22T06:36:20.850Z,19.39
2019-03-22T06:37:20.791Z,19.54
2019-03-22T06:38:20.778Z,19.59
2019-03-22T06:39:20.769Z,19.72
2019-03-22T06:40:20.755Z,20.05
2019-03-22T06:41:20.748Z,20.30
2019-03-22T06:42:20.986Z,20.45
2019-03-22T06:43:20.730Z,20.45
2019-03-22T06:44:20.712Z,20.48
2019-03-22T06:45:20.702Z,20.52
2019-03-22T06:46:20.695Z,20.48
2019-03-22T06:47:20.689Z,20.41
2019-03-22T06:48:20.716Z,20.09
2019-03-22T06:49:20.661Z,19.98
2019-03-22T06:50:20.645Z,19.88
2019-03-22T06:51:20.632Z,19.80
2019-03-22T06:52:20.627Z,19.88
2019-03-22T06:53:20.610Z,19.80
2019-03-22T06:54:31.086Z,19.60
2019-03-22T06:55:45.407Z,19.56
2019-03-22T06:56:45.394Z,19.42
2019-03-22T06:57:45.387Z,19.30
2019-03-22T06:58:45.375Z,19.34
2019-03-22T06:59:45.614Z,19.34
2019-03-22T07:00:45.353Z,19.30
2019-03-22T07:01:45.344Z,19.38
2019-03-22T07:02:45.334Z,19.34
2019-03-22T07:03:45.322Z,19.34
2019-03-22T07:04:45.306Z,19.34
2019-03-22T07:05:45.399Z,19.23
2019-03-22T07:06:45.286Z,19.23
2019-03-22T07:07:45.279Z,19.19
2019-03-22T07:08:45.265Z,19.07
2019-03-22T07:09:45.260Z,19.28
2019-03-22T07:10:45.247Z,19.16
2019-03-22T07:11:45.285Z,19.20
2019-03-22T07:12:45.222Z,19.10
2019-03-22T07:13:45.207Z,19.19
2019-03-22T07:14:45.201Z,19.10
2019-03-22T07:15:45.190Z,19.05
2019-03-22T07:16:45.177Z,18.91
2019-03-22T07:17:45.417Z,18.86
2019-03-22T07:18:45.156Z,18.79
2019-03-22T07:19:45.142Z,18.67
2019-03-22T07:20:45.135Z,18.70
2019-03-22T07:21:45.121Z,18.74
2019-03-22T07:22:45.166Z,18.73
2019-03-22T07:23:45.149Z,18.67
2019-03-22T07:24:45.092Z,18.73
2019-03-22T07:25:45.080Z,18.76
2019-03-22T07:26:45.067Z,18.80
2019-03-22T07:27:45.058Z,18.87
2019-03-22T07:28:45.047Z,19.14
2019-03-22T07:29:45.084Z,19.23
2019-03-22T07:30:45.021Z,19.28
2019-03-22T07:31:45.013Z,19.37
2019-03-22T07:32:45.005Z,19.42
2019-03-22T07:33:44.995Z,19.41
2019-03-22T07:34:44.981Z,19.42
2019-03-22T07:35:45.176Z,19.47
2019-03-22T07:36:46.996Z,19.50
2019-03-22T07:37:44.947Z,19.41
2019-03-22T07:38:44.944Z,19.39
2019-03-22T07:39:44.930Z,19.32
2019-03-22T07:40:44.921Z,19.39
2019-03-22T07:41:44.964Z,19.35
2019-03-22T07:42:44.903Z,19.35
2019-03-22T07:43:44.886Z,19.27
2019-03-22T07:44:44.882Z,19.17
2019-03-22T07:45:44.874Z,19.10
2019-03-22T07:46:44.861Z,19.04
2019-03-22T07:47:44.945Z,18.95
2019-03-22T07:48:44.836Z,18.80
2019-03-22T07:49:44.826Z,18.61
2019-03-22T07:50:44.814Z,18.58
2019-03-22T07:51:44.806Z,18.49
2019-03-22T07:52:44.796Z,18.43
2019-03-22T07:53:45.233Z,18.36
2019-03-22T07:54:44.773Z,18.23
2019-03-22T07:55:44.765Z,18.02
2019-03-22T07:56:44.753Z,17.75
2019-03-22T07:57:44.743Z,17.63
2019-03-22T07:58:44.732Z,17.63
2019-03-22T07:59:44.773Z,17.54
2019-03-22T08:00:44.707Z,17.48
2019-03-22T08:01:44.699Z,17.33
2019-03-22T08:02:44.689Z,17.29
2019-03-22T08:03:44.676Z,17.32
2019-03-22T08:04:44.665Z,17.33
2019-03-22T08:05:50.788Z,17.32
2019-03-22T08:07:09.465Z,17.18
2019-03-22T08:08:09.448Z,17.11
2019-03-22T08:09:09.437Z,16.96
2019-03-22T08:10:09.430Z,16.87
2019-03-22T08:11:09.576Z,16.74
2019-03-22T08:12:09.403Z,16.54
2019-03-22T08:13:09.396Z,16.52
2019-03-22T08:14:09.384Z,16.26
2019-03-22T08:15:09.396Z,16.16
2019-03-22T08:16:09.383Z,15.94
2019-03-22T08:17:09.455Z,15.96
2019-03-22T08:18:09.377Z,15.86
2019-03-22T08:19:09.337Z,15.79
2019-03-22T08:20:09.324Z,15.68
2019-03-22T08:21:09.314Z,15.70
2019-03-22T08:22:09.330Z,15.68
2019-03-22T08:23:09.382Z,15.66
2019-03-22T08:24:09.277Z,15.78
2019-03-22T08:25:09.306Z,15.74
2019-03-22T08:26:09.269Z,15.82
2019-03-22T08:27:09.269Z,15.92
2019-03-22T08:28:09.238Z,15.88
2019-03-22T08:29:09.382Z,15.75
2019-03-22T08:30:09.220Z,15.74
2019-03-22T08:31:09.206Z,15.64
2019-03-22T08:32:09.212Z,15.66
2019-03-22T08:33:09.198Z,15.51
2019-03-22T08:34:09.179Z,15.40
2019-03-22T08:35:09.265Z,15.61
2019-03-22T08:36:09.158Z,15.61
2019-03-22T08:37:09.177Z,15.49
2019-03-22T08:38:09.130Z,15.59
2019-03-22T08:39:09.119Z,15.57
2019-03-22T08:40:09.144Z,15.66
2019-03-22T08:41:09.212Z,15.72
2019-03-22T08:42:09.093Z,15.72
2019-03-22T08:43:09.073Z,15.66
2019-03-22T08:44:09.071Z,15.64
2019-03-22T08:45:11.277Z,15.66
2019-03-22T08:46:09.043Z,15.57
2019-03-22T08:47:09.181Z,15.66
2019-03-22T08:48:09.023Z,15.76
2019-03-22T08:49:09.690Z,15.78
2019-03-22T08:50:08.998Z,15.93
2019-03-22T08:51:09.021Z,15.97
2019-03-22T08:52:08.999Z,15.92
2019-03-22T08:53:09.016Z,16.00
2019-03-22T08:54:08.996Z,16.07
2019-03-22T08:55:08.946Z,16.15
2019-03-22T08:56:08.939Z,16.25
2019-03-22T08:57:08.927Z,16.43
2019-03-22T08:58:08.916Z,16.34
2019-03-22T08:59:09.115Z,16.40
2019-03-22T09:00:08.957Z,16.34
2019-03-22T09:01:08.901Z,16.34
2019-03-22T09:02:08.875Z,16.37
2019-03-22T09:03:08.860Z,16.52
2019-03-22T09:04:08.849Z,16.58
2019-03-22T09:05:08.990Z,16.54
2019-03-22T09:06:08.829Z,16.34
2019-03-22T09:07:08.831Z,16.26
2019-03-22T09:08:08.805Z,16.21
2019-03-22T09:09:08.791Z,16.30
2019-03-22T09:10:08.791Z,16.37
2019-03-22T09:11:08.857Z,16.11
2019-03-22T09:12:08.788Z,15.86
2019-03-22T09:13:08.749Z,15.63
2019-03-22T09:14:08.760Z,15.66
2019-03-22T09:15:08.749Z,15.72
2019-03-22T09:16:08.723Z,15.78
2019-03-22T09:17:08.781Z,15.82
2019-03-22T09:18:08.701Z,15.75
2019-03-22T09:19:08.698Z,15.82
2019-03-22T09:20:08.733Z,15.96
2019-03-22T09:21:08.665Z,15.86
2019-03-22T09:22:08.699Z,15.64
2019-03-22T09:23:08.798Z,15.05
2019-03-22T09:24:08.633Z,15.10
2019-03-22T09:25:08.629Z,15.48
2019-03-22T09:26:08.641Z,15.35
2019-03-22T09:27:08.606Z,15.38
2019-03-22T09:28:10.384Z,15.25
2019-03-22T09:29:08.641Z,15.38
2019-03-22T09:30:08.586Z,15.54
2019-03-22T09:31:10.611Z,15.72
2019-03-22T09:32:08.600Z,15.61
2019-03-22T09:33:08.554Z,15.57
2019-03-22T09:34:08.528Z,15.70
2019-03-22T09:35:08.568Z,15.38
2019-03-22T09:36:08.535Z,15.00
2019-03-22T09:37:09.048Z,14.85
2019-03-22T09:38:13.127Z,14.69
2019-03-22T09:39:08.530Z,14.71
2019-03-22T09:40:08.812Z,14.67
2019-03-22T09:41:08.615Z,14.80
2019-03-22T09:42:08.523Z,14.79
2019-03-22T09:43:08.428Z,14.80
2019-03-22T09:44:08.428Z,14.67
2019-03-22T09:45:08.407Z,14.53
2019-03-22T09:46:08.394Z,14.62
2019-03-22T09:47:08.543Z,14.80
2019-03-22T09:48:08.377Z,14.77
2019-03-22T09:49:08.364Z,14.62
2019-03-22T09:50:08.354Z,14.50
2019-03-22T09:51:08.344Z,14.47
2019-03-22T09:52:42.907Z,14.50
2019-03-22T09:53:08.333Z,14.49
2019-03-22T09:54:08.309Z,14.44
2019-03-22T09:55:13.664Z,14.46
2019-03-22T09:56:08.292Z,14.57
2019-03-22T09:57:08.280Z,14.61
2019-03-22T09:58:08.456Z,14.47
2019-03-22T09:59:08.260Z,14.37
2019-03-22T10:00:08.299Z,14.44
2019-03-22T10:01:08.274Z,14.43
2019-03-22T10:02:08.224Z,14.67
2019-03-22T10:03:08.213Z,14.74
2019-03-22T10:04:08.272Z,14.68
2019-03-22T10:05:08.213Z,14.64
2019-03-22T10:06:08.177Z,14.82
2019-03-22T10:07:08.177Z,14.80
2019-03-22T10:08:08.182Z,14.98
2019-03-22T10:09:08.147Z,15.20
2019-03-22T10:10:08.182Z,15.14
2019-03-22T10:11:08.155Z,15.12
2019-03-22T10:12:08.128Z,15.19
2019-03-22T10:13:08.137Z,15.23
2019-03-22T10:14:08.093Z,15.20
2019-03-22T10:15:08.088Z,15.27
2019-03-22T10:16:08.286Z,15.08
2019-03-22T10:17:08.092Z,14.93
2019-03-22T10:18:08.055Z,14.90
2019-03-22T10:19:08.095Z,15.25
2019-03-22T10:20:08.031Z,15.63
2019-03-22T10:21:08.019Z,15.89
2019-03-22T10:22:08.067Z,15.99
2019-03-22T10:23:07.997Z,15.97
2019-03-22T10:24:07.986Z,15.76
2019-03-22T10:25:08.051Z,15.60
2019-03-22T10:26:07.964Z,15.44
2019-03-22T10:27:07.958Z,16.04
2019-03-22T10:28:08.056Z,16.26
2019-03-22T10:29:07.960Z,15.81
2019-03-22T10:30:07.954Z,15.54
2019-03-22T10:31:07.914Z,15.56
2019-03-22T10:32:07.898Z,15.44
2019-03-22T10:33:07.970Z,15.54
2019-03-22T10:34:08.085Z,15.61
2019-03-22T10:35:07.931Z,15.57
2019-03-22T10:36:07.923Z,15.75
2019-03-22T10:37:07.845Z,15.68
2019-03-22T10:38:15.908Z,15.67
2019-03-22T10:39:32.723Z,15.45
2019-03-22T10:40:32.713Z,15.74
2019-03-22T10:41:32.665Z,15.64
2019-03-22T10:42:32.681Z,15.57
2019-03-22T10:43:32.650Z,15.38
2019-03-22T10:44:32.683Z,15.23
2019-03-22T10:45:32.694Z,15.32
2019-03-22T10:46:32.614Z,15.60
2019-03-22T10:47:32.635Z,15.85
2019-03-22T10:48:32.685Z,16.18
2019-03-22T10:49:32.584Z,16.62
2019-03-22T10:50:32.774Z,16.85
2019-03-22T10:51:32.565Z,16.90
2019-03-22T10:52:32.550Z,16.52
2019-03-22T10:53:32.602Z,16.12
2019-03-22T10:54:32.534Z,15.94
2019-03-22T10:55:35.378Z,15.99
2019-03-22T10:56:32.559Z,15.94
2019-03-22T10:57:32.495Z,15.96
2019-03-22T10:58:32.484Z,16.00
2019-03-22T10:59:32.475Z,16.00
2019-03-22T11:00:32.462Z,15.96
2019-03-22T11:01:32.455Z,16.25
2019-03-22T11:02:32.486Z,16.64
2019-03-22T11:03:32.484Z,16.49
2019-03-22T11:04:32.420Z,16.18
2019-03-22T11:05:32.408Z,16.12
2019-03-22T11:06:32.399Z,16.22
2019-03-22T11:07:32.390Z,16.74
2019-03-22T11:08:32.528Z,16.59
2019-03-22T11:09:32.365Z,16.59
2019-03-22T11:10:32.354Z,16.61
2019-03-22T11:11:32.344Z,16.47
2019-03-22T11:12:32.334Z,16.40
2019-03-22T11:13:32.322Z,16.55
2019-03-22T11:14:32.362Z,16.85
2019-03-22T11:15:32.295Z,16.61
2019-03-22T11:16:32.289Z,16.79
2019-03-22T11:17:32.279Z,17.04
2019-03-22T11:18:37.288Z,17.57
2019-03-22T11:19:32.255Z,17.78
2019-03-22T11:20:32.346Z,17.55
2019-03-22T11:21:32.232Z,17.22
2019-03-22T11:22:32.224Z,16.87
2019-03-22T11:23:32.215Z,16.48
2019-03-22T11:24:32.204Z,16.25
2019-03-22T11:25:32.193Z,15.99
2019-03-22T11:26:32.430Z,15.84
2019-03-22T11:27:32.170Z,15.86
2019-03-22T11:28:32.155Z,15.89
2019-03-22T11:29:32.150Z,15.79
2019-03-22T11:30:32.135Z,15.96
2019-03-22T11:31:39.511Z,16.41
2019-03-22T11:32:56.980Z,16.95
2019-03-22T11:33:56.968Z,17.18
2019-03-22T11:34:56.958Z,17.23
2019-03-22T11:35:56.949Z,17.36
2019-03-22T11:36:56.934Z,17.48
2019-03-22T11:37:56.980Z,17.61
2019-03-22T11:38:56.912Z,17.65
2019-03-22T11:39:56.905Z,17.36
2019-03-22T11:40:56.891Z,17.48
2019-03-22T11:41:56.883Z,17.36
2019-03-22T11:42:56.871Z,17.51
2019-03-22T11:43:57.071Z,17.83
2019-03-22T11:44:56.851Z,17.87
2019-03-22T11:45:56.837Z,17.91
2019-03-22T11:46:56.825Z,18.11
2019-03-22T11:47:56.820Z,18.17
2019-03-22T11:48:56.802Z,18.06
2019-03-22T11:49:56.899Z,17.57
2019-03-22T11:50:56.786Z,16.98
2019-03-22T11:51:56.777Z,16.80
2019-03-22T11:52:56.767Z,16.84
2019-03-22T11:53:56.756Z,17.00
2019-03-22T11:54:56.742Z,17.38
2019-03-22T11:55:56.776Z,17.62
2019-03-22T11:56:56.721Z,17.70
2019-03-22T11:57:56.714Z,17.83
2019-03-22T11:58:56.695Z,17.59
2019-03-22T11:59:56.690Z,17.63
2019-03-22T12:00:56.674Z,17.63
2019-03-22T12:01:56.819Z,17.78
2019-03-22T12:02:56.652Z,17.86
2019-03-22T12:03:56.645Z,17.88
2019-03-22T12:04:56.632Z,17.84
2019-03-22T12:05:56.624Z,17.68
2019-03-22T12:06:56.613Z,17.62
2019-03-22T12:07:56.653Z,17.48
2019-03-22T12:08:56.590Z,17.70
2019-03-22T12:09:56.578Z,17.88
2019-03-22T12:10:56.563Z,17.83
2019-03-22T12:11:56.556Z,17.87
2019-03-22T12:12:56.548Z,17.81
2019-03-22T12:13:56.586Z,17.86
2019-03-22T12:14:56.526Z,17.81
2019-03-22T12:15:56.514Z,17.61
2019-03-22T12:16:56.786Z,17.43
2019-03-22T12:17:56.491Z,17.38
2019-03-22T12:18:56.478Z,17.30
2019-03-22T12:19:56.621Z,17.30
2019-03-22T12:20:56.655Z,17.33
2019-03-22T12:21:56.446Z,17.59
2019-03-22T12:22:56.437Z,17.70
2019-03-22T12:23:56.425Z,17.83
2019-03-22T12:24:56.417Z,17.91
2019-03-22T12:25:56.449Z,17.77
2019-03-22T12:26:56.393Z,17.77
2019-03-22T12:27:56.381Z,17.55
2019-03-22T12:28:56.372Z,17.32
2019-03-22T12:29:56.358Z,17.22
2019-03-22T12:30:56.346Z,16.99
2019-03-22T12:31:56.439Z,17.11
2019-03-22T12:32:56.327Z,17.25
2019-03-22T12:33:56.319Z,17.38
2019-03-22T12:34:56.306Z,17.50
2019-03-22T12:35:56.299Z,17.25
2019-03-22T12:36:56.277Z,17.10
2019-03-22T12:37:57.781Z,17.22
2019-03-22T12:38:56.265Z,17.41
2019-03-22T12:39:56.253Z,17.66
2019-03-22T12:40:56.237Z,17.87
2019-03-22T12:41:56.230Z,18.09
2019-03-22T12:42:56.748Z,17.98
2019-03-22T12:43:56.256Z,17.86
2019-03-22T12:44:56.193Z,17.59
2019-03-22T12:45:56.185Z,17.61
2019-03-22T12:46:56.170Z,17.80
2019-03-22T12:47:56.158Z,17.65
2019-03-22T12:48:56.149Z,17.43
2019-03-22T12:49:56.243Z,17.06
2019-03-22T12:50:56.129Z,17.14
2019-03-22T12:51:56.112Z,17.32
2019-03-22T12:52:56.121Z,17.26
2019-03-22T12:53:56.093Z,17.23
2019-03-22T12:54:56.080Z,17.40
2019-03-22T12:55:56.225Z,17.30
2019-03-22T12:56:56.061Z,17.32
2019-03-22T12:57:56.053Z,17.28
2019-03-22T12:58:56.037Z,17.41
2019-03-22T12:59:56.027Z,17.36
2019-03-22T13:00:56.020Z,17.07
2019-03-22T13:01:56.110Z,16.74
2019-03-22T13:02:55.999Z,16.52
2019-03-22T13:03:55.988Z,16.36
2019-03-22T13:04:55.971Z,16.47
2019-03-22T13:05:55.962Z,16.40
2019-03-22T13:06:55.955Z,16.30
2019-03-22T13:07:55.994Z,15.99
2019-03-22T13:08:55.931Z,15.82
2019-03-22T13:09:55.915Z,15.68
2019-03-22T13:10:55.905Z,15.56
2019-03-22T13:11:55.896Z,15.59
2019-03-22T13:12:55.884Z,15.84
2019-03-22T13:13:56.074Z,15.99
2019-03-22T13:14:56.718Z,16.03
2019-03-22T13:15:55.864Z,16.24
2019-03-22T13:16:55.838Z,16.49
2019-03-22T13:17:55.832Z,16.49
2019-03-22T13:18:55.823Z,16.29
2019-03-22T13:19:55.860Z,16.00
2019-03-22T13:20:55.799Z,15.88
2019-03-22T13:21:55.790Z,15.74
2019-03-22T13:22:55.778Z,15.70
2019-03-22T13:23:55.763Z,15.93
2019-03-22T13:24:55.749Z,16.09
2019-03-22T13:25:55.849Z,16.12
2019-03-22T13:26:55.728Z,16.40
2019-03-22T13:27:55.719Z,16.73
2019-03-22T13:28:55.713Z,17.07
2019-03-22T13:29:55.697Z,17.06
2019-03-22T13:30:55.691Z,16.72
2019-03-22T13:31:55.832Z,16.37
2019-03-22T13:32:55.667Z,16.16
2019-03-22T13:33:55.657Z,15.88
2019-03-22T13:34:55.643Z,15.54
2019-03-22T13:35:55.635Z,15.23
2019-03-22T13:36:55.622Z,15.08
2019-03-22T13:37:55.665Z,15.14
2019-03-22T13:38:55.603Z,15.05
2019-03-22T13:39:55.595Z,15.32
2019-03-22T13:40:55.580Z,15.84
2019-03-22T13:41:55.570Z,16.32
2019-03-22T13:42:55.556Z,16.76
2019-03-22T13:43:55.651Z,16.59
2019-03-22T13:44:55.543Z,16.32
2019-03-22T13:45:55.523Z,16.47
2019-03-22T13:46:55.518Z,16.77
2019-03-22T13:47:55.503Z,16.93
2019-03-22T13:48:55.497Z,17.04
2019-03-22T13:49:55.630Z,17.18
2019-03-22T13:50:55.470Z,17.35
2019-03-22T13:51:55.464Z,17.32
2019-03-22T13:52:55.451Z,17.44
2019-03-22T13:53:55.445Z,17.22
2019-03-22T13:54:55.434Z,17.23
2019-03-22T13:55:55.466Z,17.23
2019-03-22T13:56:55.405Z,17.29